sensor_id;sensor_type;location;lat;lon;timestamp;pressure;altitude;pressure_sealevel;temperature;humidity
27202;BME280;14717;46.924;15.474;2022-10-17T00:01:21;98937.63;;;11.29;97.06
27202;BME280;14717;46.924;15.474;2022-10-17T00:03:46;98950.94;;;11.32;96.41
27202;BME280;14717;46.924;15.474;2022-10-17T00:06:13;98948.94;;;11.18;97.39
27202;BME280;14717;46.924;15.474;2022-10-17T00:08:40;98945.03;;;11.19;97.60
27202;BME280;14717;46.924;15.474;2022-10-17T00:11:08;98945.38;;;11.27;96.86
27202;BME280;14717;46.924;15.474;2022-10-17T00:13:36;98947.84;;;11.34;96.63
27202;BME280;14717;46.924;15.474;2022-10-17T00:16:02;98945.63;;;11.21;95.89
27202;BME280;14717;46.924;15.474;2022-10-17T00:18:28;98953.81;;;11.01;98.34
27202;BME280;14717;46.924;15.474;2022-10-17T00:20:53;98948.81;;;10.93;99.51
27202;BME280;14717;46.924;15.474;2022-10-17T00:23:19;98950.97;;;10.86;100.00
27202;BME280;14717;46.924;15.474;2022-10-17T00:25:44;98946.22;;;10.77;100.00
27202;BME280;14717;46.924;15.474;2022-10-17T00:28:14;98947.84;;;10.73;100.00
27202;BME280;14717;46.924;15.474;2022-10-17T00:30:40;98948.66;;;10.68;100.00
27202;BME280;14717;46.924;15.474;2022-10-17T00:33:05;98949.47;;;10.69;100.00
27202;BME280;14717;46.924;15.474;2022-10-17T00:35:32;98949.47;;;10.69;100.00
27202;BME280;14717;46.924;15.474;2022-10-17T00:37:57;98946.44;;;10.65;100.00
27202;BME280;14717;46.924;15.474;2022-10-17T00:40:23;98937.53;;;10.59;100.00
27202;BME280;14717;46.924;15.474;2022-10-17T00:42:49;98948.84;;;10.57;100.00
27202;BME280;14717;46.924;15.474;2022-10-17T00:45:21;98945.56;;;10.60;100.00
27202;BME280;14717;46.924;15.474;2022-10-17T00:47:51;98948.88;;;10.62;100.00
27202;BME280;14717;46.924;15.474;2022-10-17T00:50:18;98944.94;;;10.53;100.00
27202;BME280;14717;46.924;15.474;2022-10-17T00:52:45;98944.09;;;10.48;100.00
27202;BME280;14717;46.924;15.474;2022-10-17T00:55:15;98938.59;;;10.53;100.00
27202;BME280;14717;46.924;15.474;2022-10-17T00:57:42;98937.88;;;10.67;100.00
27202;BME280;14717;46.924;15.474;2022-10-17T01:00:09;98934.91;;;10.78;100.00
27202;BME280;14717;46.924;15.474;2022-10-17T01:02:35;98934.09;;;10.83;99.22
27202;BME280;14717;46.924;15.474;2022-10-17T01:05:00;98936.75;;;10.68;99.30
27202;BME280;14717;46.924;15.474;2022-10-17T01:07:27;98940.06;;;10.65;98.98
27202;BME280;14717;46.924;15.474;2022-10-17T01:09:53;98935.69;;;10.74;99.01
27202;BME280;14717;46.924;15.474;2022-10-17T01:12:23;98937.66;;;10.78;99.26
27202;BME280;14717;46.924;15.474;2022-10-17T01:31:57;98933.38;;;10.56;99.50
27202;BME280;14717;46.924;15.474;2022-10-17T01:35:07;98944.94;;;10.53;98.40
27202;BME280;14717;46.924;15.474;2022-10-17T01:37:51;98947.84;;;10.32;98.26
27202;BME280;14717;46.924;15.474;2022-10-17T01:40:23;98951.38;;;10.22;100.00
27202;BME280;14717;46.924;15.474;2022-10-17T01:45:39;98949.03;;;10.10;99.84
27202;BME280;14717;46.924;15.474;2022-10-17T01:48:11;98950.34;;;10.02;100.00
27202;BME280;14717;46.924;15.474;2022-10-17T01:50:43;98952.50;;;9.95;100.00
27202;BME280;14717;46.924;15.474;2022-10-17T01:53:28;98944.56;;;10.04;100.00
27202;BME280;14717;46.924;15.474;2022-10-17T01:55:59;98948.22;;;10.09;100.00
27202;BME280;14717;46.924;15.474;2022-10-17T01:58:29;98946.56;;;10.13;100.00
27202;BME280;14717;46.924;15.474;2022-10-17T02:01:00;98950.00;;;9.94;100.00
27202;BME280;14717;46.924;15.474;2022-10-17T02:03:26;98955.38;;;9.84;100.00
27202;BME280;14717;46.924;15.474;2022-10-17T02:05:53;98951.19;;;9.76;100.00
27202;BME280;14717;46.924;15.474;2022-10-17T02:08:26;98949.09;;;9.88;100.00
27202;BME280;14717;46.924;15.474;2022-10-17T02:11:01;98943.81;;;9.87;100.00
27202;BME280;14717;46.924;15.474;2022-10-17T02:16:52;98954.25;;;9.80;100.00
27202;BME280;14717;46.924;15.474;2022-10-17T02:22:09;98945.81;;;9.91;100.00
27202;BME280;14717;46.924;15.474;2022-10-17T02:24:59;98943.00;;;9.86;100.00
27202;BME280;14717;46.924;15.474;2022-10-17T02:33:02;98960.19;;;9.67;100.00
27202;BME280;14717;46.924;15.474;2022-10-17T02:35:30;98955.44;;;9.63;100.00
27202;BME280;14717;46.924;15.474;2022-10-17T02:37:58;98958.75;;;9.60;100.00
27202;BME280;14717;46.924;15.474;2022-10-17T02:40:26;98966.22;;;9.64;100.00
27202;BME280;14717;46.924;15.474;2022-10-17T02:42:54;98964.22;;;9.81;100.00
27202;BME280;14717;46.924;15.474;2022-10-17T02:45:22;98960.13;;;9.88;100.00
27202;BME280;14717;46.924;15.474;2022-10-17T02:54:03;98966.22;;;9.90;100.00
27202;BME280;14717;46.924;15.474;2022-10-17T02:56:16;98971.22;;;9.67;100.00
27202;BME280;14717;46.924;15.474;2022-10-17T02:58:45;98967.47;;;9.52;100.00
27202;BME280;14717;46.924;15.474;2022-10-17T03:01:12;98972.16;;;9.51;100.00
27202;BME280;14717;46.924;15.474;2022-10-17T03:03:38;98973.09;;;9.62;100.00
27202;BME280;14717;46.924;15.474;2022-10-17T03:06:03;98968.66;;;9.61;100.00
27202;BME280;14717;46.924;15.474;2022-10-17T03:08:29;98968.19;;;9.69;100.00
27202;BME280;14717;46.924;15.474;2022-10-17T03:10:54;98973.50;;;9.49;100.00
27202;BME280;14717;46.924;15.474;2022-10-17T03:13:20;98967.88;;;9.39;100.00
27202;BME280;14717;46.924;15.474;2022-10-17T03:15:45;98973.78;;;9.26;100.00
27202;BME280;14717;46.924;15.474;2022-10-17T03:18:11;98969.88;;;9.22;100.00
27202;BME280;14717;46.924;15.474;2022-10-17T03:20:36;98970.00;;;9.32;100.00
27202;BME280;14717;46.924;15.474;2022-10-17T03:23:02;98975.56;;;9.37;100.00
27202;BME280;14717;46.924;15.474;2022-10-17T03:25:27;98975.69;;;9.47;100.00
27202;BME280;14717;46.924;15.474;2022-10-17T03:27:53;98975.81;;;9.57;100.00
27202;BME280;14717;46.924;15.474;2022-10-17T03:30:19;98978.00;;;9.55;100.00
27202;BME280;14717;46.924;15.474;2022-10-17T03:32:44;98973.09;;;9.62;100.00
27202;BME280;14717;46.924;15.474;2022-10-17T03:35:09;98974.69;;;9.58;100.00
27202;BME280;14717;46.924;15.474;2022-10-17T03:37:35;98979.03;;;9.49;100.00
27202;BME280;14717;46.924;15.474;2022-10-17T03:40:00;98980.03;;;9.43;100.00
27202;BME280;14717;46.924;15.474;2022-10-17T03:42:26;98983.41;;;9.45;100.00
27202;BME280;14717;46.924;15.474;2022-10-17T03:44:51;98993.78;;;9.38;100.00
27202;BME280;14717;46.924;15.474;2022-10-17T03:47:16;98986.09;;;9.40;100.00
27202;BME280;14717;46.924;15.474;2022-10-17T03:49:42;98986.84;;;9.35;100.00
27202;BME280;14717;46.924;15.474;2022-10-17T03:52:14;98992.81;;;9.28;100.00
27202;BME280;14717;46.924;15.474;2022-10-17T03:54:39;98997.63;;;9.16;100.00
27202;BME280;14717;46.924;15.474;2022-10-17T03:57:05;98995.06;;;9.09;100.00
27202;BME280;14717;46.924;15.474;2022-10-17T03:59:30;99006.59;;;9.06;100.00
27202;BME280;14717;46.924;15.474;2022-10-17T04:01:56;98995.56;;;9.06;100.00
27202;BME280;14717;46.924;15.474;2022-10-17T04:04:21;98995.31;;;9.08;100.00
27202;BME280;14717;46.924;15.474;2022-10-17T04:06:47;98998.53;;;9.21;100.00
27202;BME280;14717;46.924;15.474;2022-10-17T04:09:13;98993.72;;;9.33;100.00
27202;BME280;14717;46.924;15.474;2022-10-17T04:11:38;99003.53;;;9.24;100.00
27202;BME280;14717;46.924;15.474;2022-10-17T04:14:04;99012.06;;;9.23;100.00
27202;BME280;14717;46.924;15.474;2022-10-17T04:16:30;99005.34;;;9.14;100.00
27202;BME280;14717;46.924;15.474;2022-10-17T04:18:56;99014.44;;;9.14;100.00
27202;BME280;14717;46.924;15.474;2022-10-17T04:21:24;99001.84;;;9.23;100.00
27202;BME280;14717;46.924;15.474;2022-10-17T04:23:58;99010.63;;;9.41;100.00
27202;BME280;14717;46.924;15.474;2022-10-17T04:26:25;99003.28;;;9.47;100.00
27202;BME280;14717;46.924;15.474;2022-10-17T04:28:51;99011.66;;;9.57;100.00
27202;BME280;14717;46.924;15.474;2022-10-17T04:31:17;99015.06;;;9.64;100.00
27202;BME280;14717;46.924;15.474;2022-10-17T04:33:46;99018.19;;;9.72;100.00
27202;BME280;14717;46.924;15.474;2022-10-17T04:36:13;99024.75;;;9.66;100.00
27202;BME280;14717;46.924;15.474;2022-10-17T04:38:39;99019.53;;;9.70;100.00
27202;BME280;14717;46.924;15.474;2022-10-17T04:41:07;99018.50;;;9.75;100.00
27202;BME280;14717;46.924;15.474;2022-10-17T04:43:36;99022.09;;;9.76;100.00
27202;BME280;14717;46.924;15.474;2022-10-17T04:46:03;99029.59;;;9.80;100.00
27202;BME280;14717;46.924;15.474;2022-10-17T04:48:29;99022.53;;;9.89;100.00
27202;BME280;14717;46.924;15.474;2022-10-17T04:50:57;99029.22;;;9.93;100.00
27202;BME280;14717;46.924;15.474;2022-10-17T04:53:23;99020.09;;;9.93;100.00
27202;BME280;14717;46.924;15.474;2022-10-17T04:55:49;99021.81;;;9.99;100.00
27202;BME280;14717;46.924;15.474;2022-10-17T04:58:14;99023.28;;;10.06;100.00
27202;BME280;14717;46.924;15.474;2022-10-17T05:00:40;99015.50;;;10.03;100.00
27202;BME280;14717;46.924;15.474;2022-10-17T05:03:05;99021.34;;;10.07;100.00
27202;BME280;14717;46.924;15.474;2022-10-17T05:05:30;99022.50;;;10.11;100.00
27202;BME280;14717;46.924;15.474;2022-10-17T05:07:56;99019.75;;;9.89;100.00
27202;BME280;14717;46.924;15.474;2022-10-17T05:10:21;99025.19;;;9.79;100.00
27202;BME280;14717;46.924;15.474;2022-10-17T05:12:47;99026.44;;;9.93;100.00
27202;BME280;14717;46.924;15.474;2022-10-17T05:15:13;99029.88;;;10.05;100.00
27202;BME280;14717;46.924;15.474;2022-10-17T05:17:38;99025.13;;;9.96;100.00
27202;BME280;14717;46.924;15.474;2022-10-17T05:20:04;99028.50;;;9.81;100.00
27202;BME280;14717;46.924;15.474;2022-10-17T05:22:30;99035.34;;;9.79;100.00
27202;BME280;14717;46.924;15.474;2022-10-17T05:24:55;99041.19;;;9.82;100.00
27202;BME280;14717;46.924;15.474;2022-10-17T05:27:21;99036.16;;;9.75;100.00
27202;BME280;14717;46.924;15.474;2022-10-17T05:29:46;99035.72;;;9.87;100.00
27202;BME280;14717;46.924;15.474;2022-10-17T05:32:11;99036.97;;;9.96;100.00
27202;BME280;14717;46.924;15.474;2022-10-17T05:34:37;99044.78;;;10.04;100.00
27202;BME280;14717;46.924;15.474;2022-10-17T05:37:02;99044.25;;;10.07;100.00
27202;BME280;14717;46.924;15.474;2022-10-17T05:39:28;99047.44;;;9.94;100.00
27202;BME280;14717;46.924;15.474;2022-10-17T05:41:53;99051.53;;;9.92;100.00
27202;BME280;14717;46.924;15.474;2022-10-17T05:44:18;99058.91;;;9.86;100.00
27202;BME280;14717;46.924;15.474;2022-10-17T05:46:44;99056.56;;;9.95;100.00
27202;BME280;14717;46.924;15.474;2022-10-17T05:49:12;99062.50;;;10.08;100.00
27202;BME280;14717;46.924;15.474;2022-10-17T05:51:37;99056.75;;;10.15;100.00
27202;BME280;14717;46.924;15.474;2022-10-17T05:54:04;99056.25;;;10.18;100.00
27202;BME280;14717;46.924;15.474;2022-10-17T05:56:30;99069.81;;;10.19;100.00
27202;BME280;14717;46.924;15.474;2022-10-17T05:58:55;99069.81;;;10.19;100.00
27202;BME280;14717;46.924;15.474;2022-10-17T06:01:21;99065.72;;;10.26;100.00
27202;BME280;14717;46.924;15.474;2022-10-17T06:03:46;99080.19;;;10.38;100.00
27202;BME280;14717;46.924;15.474;2022-10-17T06:06:13;99082.69;;;10.40;100.00
27202;BME280;14717;46.924;15.474;2022-10-17T06:08:39;99086.00;;;10.37;100.00
27202;BME280;14717;46.924;15.474;2022-10-17T06:11:04;99090.41;;;10.38;100.00
27202;BME280;14717;46.924;15.474;2022-10-17T06:13:30;99082.78;;;10.50;100.00
27202;BME280;14717;46.924;15.474;2022-10-17T06:15:55;99090.00;;;10.51;100.00
27202;BME280;14717;46.924;15.474;2022-10-17T06:18:21;99097.56;;;10.34;100.00
27202;BME280;14717;46.924;15.474;2022-10-17T06:20:47;99098.03;;;10.26;100.00
27202;BME280;14717;46.924;15.474;2022-10-17T06:23:12;99096.56;;;10.18;100.00
27202;BME280;14717;46.924;15.474;2022-10-17T06:25:37;99099.16;;;10.30;100.00
27202;BME280;14717;46.924;15.474;2022-10-17T06:28:03;99101.25;;;10.18;100.00
27202;BME280;14717;46.924;15.474;2022-10-17T06:30:29;99105.25;;;10.27;100.00
27202;BME280;14717;46.924;15.474;2022-10-17T06:32:54;99103.72;;;10.41;100.00
27202;BME280;14717;46.924;15.474;2022-10-17T06:35:20;99111.94;;;10.36;100.00
27202;BME280;14717;46.924;15.474;2022-10-17T06:37:45;99105.25;;;10.27;100.00
27202;BME280;14717;46.924;15.474;2022-10-17T06:40:11;99114.91;;;10.29;100.00
27202;BME280;14717;46.924;15.474;2022-10-17T06:42:38;99121.16;;;10.46;100.00
27202;BME280;14717;46.924;15.474;2022-10-17T06:45:04;99122.06;;;10.52;100.00
27202;BME280;14717;46.924;15.474;2022-10-17T06:47:30;99127.78;;;10.71;100.00
27202;BME280;14717;46.924;15.474;2022-10-17T06:49:55;99121.19;;;10.77;100.00
27202;BME280;14717;46.924;15.474;2022-10-17T06:52:20;99129.44;;;10.72;100.00
27202;BME280;14717;46.924;15.474;2022-10-17T06:54:46;99137.81;;;10.82;100.00
27202;BME280;14717;46.924;15.474;2022-10-17T06:57:11;99129.66;;;10.97;100.00
27202;BME280;14717;46.924;15.474;2022-10-17T06:59:36;99136.34;;;11.01;100.00
27202;BME280;14717;46.924;15.474;2022-10-17T07:02:02;99138.56;;;11.09;100.00
27202;BME280;14717;46.924;15.474;2022-10-17T07:04:27;99131.69;;;11.11;100.00
27202;BME280;14717;46.924;15.474;2022-10-17T07:06:53;99141.47;;;11.24;100.00
27202;BME280;14717;46.924;15.474;2022-10-17T07:09:19;99140.75;;;11.38;100.00
27202;BME280;14717;46.924;15.474;2022-10-17T07:11:44;99143.28;;;11.45;100.00
27202;BME280;14717;46.924;15.474;2022-10-17T07:14:10;99148.63;;;11.56;100.00
27202;BME280;14717;46.924;15.474;2022-10-17T07:16:35;99133.13;;;11.55;100.00
27202;BME280;14717;46.924;15.474;2022-10-17T07:19:00;99143.38;;;11.54;100.00
27202;BME280;14717;46.924;15.474;2022-10-17T07:21:26;99144.03;;;11.35;100.00
27202;BME280;14717;46.924;15.474;2022-10-17T07:23:51;99145.03;;;11.55;100.00
27202;BME280;14717;46.924;15.474;2022-10-17T07:26:17;99143.19;;;11.71;100.00
27202;BME280;14717;46.924;15.474;2022-10-17T07:28:43;99145.78;;;11.87;100.00
27202;BME280;14717;46.924;15.474;2022-10-17T07:31:12;99150.88;;;11.59;100.00
27202;BME280;14717;46.924;15.474;2022-10-17T07:33:38;99155.53;;;11.48;100.00
27202;BME280;14717;46.924;15.474;2022-10-17T07:36:04;99156.09;;;11.50;100.00
27202;BME280;14717;46.924;15.474;2022-10-17T07:38:29;99161.22;;;11.37;100.00
27202;BME280;14717;46.924;15.474;2022-10-17T07:40:59;99154.81;;;11.32;100.00
27202;BME280;14717;46.924;15.474;2022-10-17T07:43:26;99154.34;;;11.45;100.00
27202;BME280;14717;46.924;15.474;2022-10-17T07:45:52;99150.66;;;11.65;100.00
27202;BME280;14717;46.924;15.474;2022-10-17T07:48:18;99154.25;;;11.71;100.00
27202;BME280;14717;46.924;15.474;2022-10-17T07:50:44;99152.81;;;11.58;100.00
27202;BME280;14717;46.924;15.474;2022-10-17T07:53:10;99154.91;;;11.88;100.00
27202;BME280;14717;46.924;15.474;2022-10-17T07:55:36;99154.38;;;11.95;100.00
27202;BME280;14717;46.924;15.474;2022-10-17T07:58:02;99160.53;;;12.07;100.00
27202;BME280;14717;46.924;15.474;2022-10-17T08:00:27;99149.44;;;12.07;100.00
27202;BME280;14717;46.924;15.474;2022-10-17T08:02:53;99156.41;;;12.15;100.00
27202;BME280;14717;46.924;15.474;2022-10-17T08:05:18;99162.56;;;12.32;100.00
27202;BME280;14717;46.924;15.474;2022-10-17T08:07:43;99156.28;;;12.56;100.00
27202;BME280;14717;46.924;15.474;2022-10-17T08:10:11;99152.44;;;12.81;100.00
27202;BME280;14717;46.924;15.474;2022-10-17T08:12:36;99156.91;;;13.17;100.00
27202;BME280;14717;46.924;15.474;2022-10-17T08:15:03;99154.97;;;13.32;100.00
27202;BME280;14717;46.924;15.474;2022-10-17T08:17:28;99160.78;;;13.61;100.00
27202;BME280;14717;46.924;15.474;2022-10-17T08:19:54;99157.66;;;13.77;100.00
27202;BME280;14717;46.924;15.474;2022-10-17T08:22:19;99160.69;;;14.05;100.00
27202;BME280;14717;46.924;15.474;2022-10-17T08:24:44;99165.63;;;14.18;100.00
27202;BME280;14717;46.924;15.474;2022-10-17T08:27:11;99159.72;;;14.34;99.37
27202;BME280;14717;46.924;15.474;2022-10-17T08:29:38;99165.81;;;14.41;100.00
27202;BME280;14717;46.924;15.474;2022-10-17T08:32:05;99169.13;;;14.43;100.00
27202;BME280;14717;46.924;15.474;2022-10-17T08:34:31;99163.41;;;14.73;99.07
27202;BME280;14717;46.924;15.474;2022-10-17T08:36:57;99158.31;;;14.85;96.70
27202;BME280;14717;46.924;15.474;2022-10-17T08:39:22;99162.19;;;14.84;97.85
27202;BME280;14717;46.924;15.474;2022-10-17T08:47:04;99159.91;;;15.33;96.32
27202;BME280;14717;46.924;15.474;2022-10-17T08:49:38;99159.00;;;15.43;94.55
27202;BME280;14717;46.924;15.474;2022-10-17T08:52:30;99161.75;;;15.48;93.75
27202;BME280;14717;46.924;15.474;2022-10-17T08:54:58;99164.59;;;15.71;91.79
27202;BME280;14717;46.924;15.474;2022-10-17T08:57:23;99164.19;;;15.82;91.78
27202;BME280;14717;46.924;15.474;2022-10-17T08:59:51;99149.22;;;15.97;91.49
27202;BME280;14717;46.924;15.474;2022-10-17T09:02:40;99149.34;;;16.10;91.43
27202;BME280;14717;46.924;15.474;2022-10-17T09:05:42;99144.91;;;16.09;89.52
27202;BME280;14717;46.924;15.474;2022-10-17T09:10:57;99155.13;;;16.42;90.12
27202;BME280;14717;46.924;15.474;2022-10-17T09:13:39;99158.44;;;16.44;87.08
27202;BME280;14717;46.924;15.474;2022-10-17T09:19:10;99161.69;;;17.10;85.90
27202;BME280;14717;46.924;15.474;2022-10-17T09:21:51;99160.44;;;17.35;83.94
27202;BME280;14717;46.924;15.474;2022-10-17T09:24:36;99151.31;;;17.61;83.98
27202;BME280;14717;46.924;15.474;2022-10-17T09:27:03;99156.56;;;17.81;81.80
27202;BME280;14717;46.924;15.474;2022-10-17T09:29:29;99149.44;;;17.88;81.30
27202;BME280;14717;46.924;15.474;2022-10-17T09:34:21;99151.81;;;17.81;80.06
27202;BME280;14717;46.924;15.474;2022-10-17T09:36:48;99151.00;;;18.07;78.88
27202;BME280;14717;46.924;15.474;2022-10-17T09:39:17;99149.81;;;18.27;78.76
27202;BME280;14717;46.924;15.474;2022-10-17T09:41:54;99155.91;;;18.29;75.91
27202;BME280;14717;46.924;15.474;2022-10-17T09:44:34;99146.50;;;18.25;77.34
27202;BME280;14717;46.924;15.474;2022-10-17T09:49:36;99143.13;;;18.76;77.39
27202;BME280;14717;46.924;15.474;2022-10-17T09:52:05;99146.53;;;18.86;76.41
27202;BME280;14717;46.924;15.474;2022-10-17T09:54:43;99154.06;;;19.13;76.77
27202;BME280;14717;46.924;15.474;2022-10-17T09:57:10;99144.50;;;19.14;75.64
27202;BME280;14717;46.924;15.474;2022-10-17T09:59:38;99156.56;;;19.01;76.41
27202;BME280;14717;46.924;15.474;2022-10-17T10:02:21;99157.28;;;19.41;76.29
27202;BME280;14717;46.924;15.474;2022-10-17T10:04:54;99163.06;;;19.45;74.94
27202;BME280;14717;46.924;15.474;2022-10-17T10:07:20;99163.25;;;19.48;73.23
27202;BME280;14717;46.924;15.474;2022-10-17T10:09:47;99154.22;;;19.51;74.92
27202;BME280;14717;46.924;15.474;2022-10-17T10:12:18;99150.34;;;19.61;73.77
27202;BME280;14717;46.924;15.474;2022-10-17T10:14:44;99147.84;;;19.59;72.86
27202;BME280;14717;46.924;15.474;2022-10-17T10:17:48;99146.56;;;19.87;72.11
27202;BME280;14717;46.924;15.474;2022-10-17T10:20:31;99147.94;;;19.98;72.17
27202;BME280;14717;46.924;15.474;2022-10-17T10:23:16;99140.63;;;20.18;71.84
27202;BME280;14717;46.924;15.474;2022-10-17T10:26:01;99148.63;;;20.33;69.95
27202;BME280;14717;46.924;15.474;2022-10-17T10:28:30;99141.84;;;20.34;69.21
27202;BME280;14717;46.924;15.474;2022-10-17T10:30:58;99147.03;;;20.49;69.55
27202;BME280;14717;46.924;15.474;2022-10-17T10:33:27;99141.75;;;20.56;69.38
27202;BME280;14717;46.924;15.474;2022-10-17T10:35:57;99144.25;;;20.57;67.69
27202;BME280;14717;46.924;15.474;2022-10-17T10:38:23;99145.22;;;20.53;67.72
27202;BME280;14717;46.924;15.474;2022-10-17T10:40:52;99143.25;;;20.62;67.19
27202;BME280;14717;46.924;15.474;2022-10-17T10:43:30;99144.09;;;20.62;67.87
27202;BME280;14717;46.924;15.474;2022-10-17T10:45:57;99139.53;;;20.83;68.14
27202;BME280;14717;46.924;15.474;2022-10-17T10:48:25;99137.09;;;20.90;67.97
27202;BME280;14717;46.924;15.474;2022-10-17T10:50:56;99127.66;;;20.94;67.52
27202;BME280;14717;46.924;15.474;2022-10-17T10:53:43;99121.88;;;21.16;66.90
27202;BME280;14717;46.924;15.474;2022-10-17T11:06:39;99120.06;;;21.20;66.39
27202;BME280;14717;46.924;15.474;2022-10-17T11:09:15;99123.22;;;21.27;66.63
27202;BME280;14717;46.924;15.474;2022-10-17T11:14:55;99116.72;;;21.69;66.10
27202;BME280;14717;46.924;15.474;2022-10-17T11:20:12;99119.50;;;21.94;65.55
27202;BME280;14717;46.924;15.474;2022-10-17T11:22:46;99110.91;;;21.82;64.60
27202;BME280;14717;46.924;15.474;2022-10-17T11:25:27;99104.63;;;21.85;63.59
27202;BME280;14717;46.924;15.474;2022-10-17T11:27:53;99109.91;;;21.86;64.35
27202;BME280;14717;46.924;15.474;2022-10-17T11:30:20;99092.59;;;22.22;64.85
27202;BME280;14717;46.924;15.474;2022-10-17T11:32:52;99106.53;;;22.10;62.93
27202;BME280;14717;46.924;15.474;2022-10-17T11:35:25;99102.03;;;22.17;63.41
27202;BME280;14717;46.924;15.474;2022-10-17T11:38:00;99100.53;;;22.20;62.50
27202;BME280;14717;46.924;15.474;2022-10-17T11:40:33;99104.91;;;21.92;64.24
27202;BME280;14717;46.924;15.474;2022-10-17T11:43:24;99095.75;;;22.20;64.44
27202;BME280;14717;46.924;15.474;2022-10-17T11:45:58;99088.00;;;22.46;63.00
27202;BME280;14717;46.924;15.474;2022-10-17T11:48:27;99091.47;;;22.43;62.69
27202;BME280;14717;46.924;15.474;2022-10-17T11:51:12;99088.66;;;22.43;62.28
27202;BME280;14717;46.924;15.474;2022-10-17T11:56:18;99095.19;;;22.64;63.25
27202;BME280;14717;46.924;15.474;2022-10-17T12:04:20;99087.00;;;22.70;62.73
27202;BME280;14717;46.924;15.474;2022-10-17T12:07:17;99090.06;;;22.86;62.21
27202;BME280;14717;46.924;15.474;2022-10-17T12:12:47;99081.75;;;22.89;62.17
27202;BME280;14717;46.924;15.474;2022-10-17T12:17:45;99078.22;;;23.01;60.99
27202;BME280;14717;46.924;15.474;2022-10-17T12:22:54;99081.69;;;22.77;62.30
27202;BME280;14717;46.924;15.474;2022-10-17T12:25:26;99081.03;;;22.72;61.81
27202;BME280;14717;46.924;15.474;2022-10-17T12:30:31;99085.66;;;22.76;61.14
27202;BME280;14717;46.924;15.474;2022-10-17T12:35:37;99086.03;;;22.95;61.48
27202;BME280;14717;46.924;15.474;2022-10-17T12:38:25;99077.19;;;22.76;61.07
27202;BME280;14717;46.924;15.474;2022-10-17T12:40:53;99071.44;;;22.73;61.63
27202;BME280;14717;46.924;15.474;2022-10-17T12:45:54;99078.00;;;22.77;62.32
27202;BME280;14717;46.924;15.474;2022-10-17T12:56:35;99074.06;;;23.18;62.51
27202;BME280;14717;46.924;15.474;2022-10-17T12:59:00;99065.81;;;23.34;62.22
27202;BME280;14717;46.924;15.474;2022-10-17T13:01:31;99067.44;;;23.35;62.30
27202;BME280;14717;46.924;15.474;2022-10-17T13:03:58;99076.00;;;23.47;62.21
27202;BME280;14717;46.924;15.474;2022-10-17T13:06:31;99065.13;;;23.37;61.42
27202;BME280;14717;46.924;15.474;2022-10-17T13:11:48;99072.16;;;23.31;61.62
27202;BME280;14717;46.924;15.474;2022-10-17T13:14:17;99066.03;;;23.29;61.92
27202;BME280;14717;46.924;15.474;2022-10-17T13:17:04;99067.56;;;23.38;61.17
27202;BME280;14717;46.924;15.474;2022-10-17T13:19:50;99071.47;;;23.34;60.98
27202;BME280;14717;46.924;15.474;2022-10-17T13:22:17;99072.69;;;23.24;61.03
27202;BME280;14717;46.924;15.474;2022-10-17T13:24:43;99069.88;;;23.24;61.52
27202;BME280;14717;46.924;15.474;2022-10-17T13:27:30;99065.78;;;23.22;62.27
27202;BME280;14717;46.924;15.474;2022-10-17T13:29:59;99066.38;;;23.27;61.16
27202;BME280;14717;46.924;15.474;2022-10-17T13:32:33;99066.31;;;23.15;61.83
27202;BME280;14717;46.924;15.474;2022-10-17T13:35:14;99066.72;;;23.26;62.31
27202;BME280;14717;46.924;15.474;2022-10-17T13:37:42;99069.97;;;23.16;62.75
27202;BME280;14717;46.924;15.474;2022-10-17T13:40:24;99076.97;;;23.10;63.05
27202;BME280;14717;46.924;15.474;2022-10-17T13:42:50;99069.81;;;23.12;63.12
27202;BME280;14717;46.924;15.474;2022-10-17T13:45:21;99064.31;;;23.16;62.99
27202;BME280;14717;46.924;15.474;2022-10-17T13:47:48;99072.94;;;22.99;63.26
27202;BME280;14717;46.924;15.474;2022-10-17T13:50:35;99075.34;;;23.09;63.66
27202;BME280;14717;46.924;15.474;2022-10-17T13:53:36;99064.16;;;23.33;63.06
27202;BME280;14717;46.924;15.474;2022-10-17T13:56:15;99080.59;;;23.31;62.52
27202;BME280;14717;46.924;15.474;2022-10-17T13:58:43;99063.63;;;23.19;62.19
27202;BME280;14717;46.924;15.474;2022-10-17T14:01:11;99071.63;;;23.17;62.17
27202;BME280;14717;46.924;15.474;2022-10-17T14:03:36;99079.16;;;23.05;63.30
27202;BME280;14717;46.924;15.474;2022-10-17T14:06:19;99066.75;;;23.06;63.13
27202;BME280;14717;46.924;15.474;2022-10-17T14:09:06;99071.06;;;23.03;63.09
27202;BME280;14717;46.924;15.474;2022-10-17T14:11:38;99080.84;;;23.06;62.34
27202;BME280;14717;46.924;15.474;2022-10-17T14:14:05;99079.78;;;23.10;62.04
27202;BME280;14717;46.924;15.474;2022-10-17T14:16:40;99075.41;;;23.01;62.36
27202;BME280;14717;46.924;15.474;2022-10-17T14:19:26;99080.63;;;23.10;62.31
27202;BME280;14717;46.924;15.474;2022-10-17T14:21:54;99071.94;;;22.95;62.71
27202;BME280;14717;46.924;15.474;2022-10-17T14:26:51;99078.78;;;22.94;62.84
27202;BME280;14717;46.924;15.474;2022-10-17T14:31:49;99078.28;;;22.92;62.77
27202;BME280;14717;46.924;15.474;2022-10-17T14:34:27;99084.72;;;22.64;62.99
27202;BME280;14717;46.924;15.474;2022-10-17T14:36:53;99081.84;;;22.72;63.25
27202;BME280;14717;46.924;15.474;2022-10-17T14:39:21;99087.13;;;22.82;63.72
27202;BME280;14717;46.924;15.474;2022-10-17T14:41:48;99076.53;;;22.79;64.38
27202;BME280;14717;46.924;15.474;2022-10-17T14:44:24;99078.22;;;22.72;64.52
27202;BME280;14717;46.924;15.474;2022-10-17T14:46:58;99077.06;;;22.73;64.34
27202;BME280;14717;46.924;15.474;2022-10-17T14:49:36;99074.03;;;22.78;64.08